Cap Bianco — A8OK5 — position and weather

sailwx.info

Track history (hours):
 
Tides and Currents Weather Stations Pressure Air Temp Water Temp Dewpoint Dewpoint Depression Visibility Wind Speed Wind Dir Waves Ship Positions

Cap Bianco

Last reported at 2014-Oct-01 02:32 UTC. Time now 2014-Oct-01 10:25 UTC.
Position S 24°12' W 046°26'.

Length 222 m; draft 9.7 m.

Type: Cargo ship. MMSI: 636091489.

Date/timePositionNaut miles runAvg speedWind from/ knotsBaromVisibWave heightAir tempDewpointWater temp
2014-Oct-01 02:32S 24°12' W 046°26'1313.1
2014-Oct-01 01:34S 23°60' W 046°20'5 0.8
2014-Sep-30 19:26S 23°55' W 046°21'1 0.2
2014-Sep-30 15:33S 23°55' W 046°20'3 3.2
2014-Sep-30 14:31S 23°58' W 046°18'0 0.0
2014-Sep-30 13:31S 23°58' W 046°18'0 0.0
2014-Sep-30 12:31S 23°58' W 046°18'0 0.0
2014-Sep-30 11:31S 23°58' W 046°18'0 0.0
2014-Sep-30 10:31S 23°58' W 046°18'0 0.0
2014-Sep-30 09:31S 23°58' W 046°18'0 0.0
2014-Sep-30 08:31S 23°58' W 046°18'0 0.0
2014-Sep-30 07:31S 23°58' W 046°18'0 0.0
2014-Sep-30 06:31S 23°58' W 046°18'0 0.0
2014-Sep-30 05:25S 23°58' W 046°18'0 0.0
2014-Sep-30 04:31S 23°58' W 046°18'0 0.0
2014-Sep-30 03:31S 23°58' W 046°18'0 0.0
2014-Sep-30 02:31S 23°58' W 046°18'0 0.0
2014-Sep-30 01:31S 23°58' W 046°18'0 0.0
2014-Sep-30 00:28S 23°58' W 046°18'0 0.0
2014-Sep-29 23:25S 23°58' W 046°18'0 0.0
2014-Sep-29 22:31S 23°58' W 046°18'0 0.0
2014-Sep-29 21:31S 23°58' W 046°18'0 0.0
2014-Sep-29 20:31S 23°58' W 046°18'0 0.0
2014-Sep-29 19:31S 23°58' W 046°18'0 0.0
2014-Sep-29 18:31S 23°58' W 046°18'0 0.1
2014-Sep-29 17:33S 23°58' W 046°18'8 7.7
2014-Sep-29 16:34S 24°04' W 046°22'  
2014-Sep-27 02:16S 27°36' W 048°18'  
2014-Sep-24 14:32S 35°02' W 056°02'80 5.1
2014-Sep-23 23:03S 34°45' W 057°37'713.4
2014-Sep-23 22:34S 34°44' W 057°45'1212.3
2014-Sep-23 21:33S 34°40' W 057°59'1212.0
2014-Sep-23 20:33S 34°37' W 058°13'11 0.2
2014-Sep-21 21:18S 34°29' W 058°23'810.5
2014-Sep-21 20:33S 34°35' W 058°16'1212.0
2014-Sep-21 19:33S 34°39' W 058°03'10 9.7
2014-Sep-21 18:29S 34°43' W 057°51'0 0.1
2014-Sep-21 17:32S 34°43' W 057°51'0 0.0
2014-Sep-21 16:29S 34°43' W 057°51'0 0.0
2014-Sep-21 15:32S 34°43' W 057°51'0 0.0
2014-Sep-21 14:32S 34°43' W 057°51'0 0.0
2014-Sep-21 13:32S 34°43' W 057°51'0 0.0
2014-Sep-21 12:32S 34°43' W 057°51'0 0.0
2014-Sep-21 11:32S 34°43' W 057°51'0 0.0
2014-Sep-21 10:32S 34°43' W 057°51'0 0.1
2014-Sep-21 09:32S 34°43' W 057°51'0 0.1
2014-Sep-21 08:32S 34°43' W 057°51'0 0.0
2014-Sep-21 07:32S 34°43' W 057°51'0 0.0
2014-Sep-21 06:32S 34°43' W 057°51'0 0.0
2014-Sep-21 05:32S 34°43' W 057°51'0 0.0
2014-Sep-21 04:32S 34°43' W 057°52'0 0.0
2014-Sep-21 03:32S 34°43' W 057°52'  
Track history (hours):
 
Tides and Currents Weather Stations Pressure Air Temp Water Temp Dewpoint Dewpoint Depression Visibility Wind Speed Wind Dir Waves Ship Positions

Cap Bianco

Last reported at 2014-Oct-01 02:32 UTC. Time now 2014-Oct-01 10:25 UTC.
Position S 24°12' W 046°26'.

Length 222 m; draft 9.7 m.

Type: Cargo ship. MMSI: 636091489.

Date/timePositionNaut miles runAvg speedWind from/ knotsBaromVisibWave heightAir tempDewpointWater temp
2014-Oct-01 02:32S 24°12' W 046°26'1313.1
2014-Oct-01 01:34S 23°60' W 046°20'5 0.8
2014-Sep-30 19:26S 23°55' W 046°21'1 0.2
2014-Sep-30 15:33S 23°55' W 046°20'3 3.2
2014-Sep-30 14:31S 23°58' W 046°18'0 0.0
2014-Sep-30 13:31S 23°58' W 046°18'0 0.0
2014-Sep-30 12:31S 23°58' W 046°18'0 0.0
2014-Sep-30 11:31S 23°58' W 046°18'0 0.0
2014-Sep-30 10:31S 23°58' W 046°18'0 0.0
2014-Sep-30 09:31S 23°58' W 046°18'0 0.0
2014-Sep-30 08:31S 23°58' W 046°18'0 0.0
2014-Sep-30 07:31S 23°58' W 046°18'0 0.0
2014-Sep-30 06:31S 23°58' W 046°18'0 0.0
2014-Sep-30 05:25S 23°58' W 046°18'0 0.0
2014-Sep-30 04:31S 23°58' W 046°18'0 0.0
2014-Sep-30 03:31S 23°58' W 046°18'0 0.0
2014-Sep-30 02:31S 23°58' W 046°18'0 0.0
2014-Sep-30 01:31S 23°58' W 046°18'0 0.0
2014-Sep-30 00:28S 23°58' W 046°18'0 0.0
2014-Sep-29 23:25S 23°58' W 046°18'0 0.0
2014-Sep-29 22:31S 23°58' W 046°18'0 0.0
2014-Sep-29 21:31S 23°58' W 046°18'0 0.0
2014-Sep-29 20:31S 23°58' W 046°18'0 0.0
2014-Sep-29 19:31S 23°58' W 046°18'0 0.0
2014-Sep-29 18:31S 23°58' W 046°18'0 0.1
2014-Sep-29 17:33S 23°58' W 046°18'8 7.7
2014-Sep-29 16:34S 24°04' W 046°22'  
2014-Sep-27 02:16S 27°36' W 048°18'  
2014-Sep-24 14:32S 35°02' W 056°02'80 5.1
2014-Sep-23 23:03S 34°45' W 057°37'713.4
2014-Sep-23 22:34S 34°44' W 057°45'1212.3
2014-Sep-23 21:33S 34°40' W 057°59'1212.0
2014-Sep-23 20:33S 34°37' W 058°13'11 0.2
2014-Sep-21 21:18S 34°29' W 058°23'810.5
2014-Sep-21 20:33S 34°35' W 058°16'1212.0
2014-Sep-21 19:33S 34°39' W 058°03'10 9.7
2014-Sep-21 18:29S 34°43' W 057°51'0 0.1
2014-Sep-21 17:32S 34°43' W 057°51'0 0.0
2014-Sep-21 16:29S 34°43' W 057°51'0 0.0
2014-Sep-21 15:32S 34°43' W 057°51'0 0.0
2014-Sep-21 14:32S 34°43' W 057°51'0 0.0
2014-Sep-21 13:32S 34°43' W 057°51'0 0.0
2014-Sep-21 12:32S 34°43' W 057°51'0 0.0
2014-Sep-21 11:32S 34°43' W 057°51'0 0.0
2014-Sep-21 10:32S 34°43' W 057°51'0 0.1
2014-Sep-21 09:32S 34°43' W 057°51'0 0.1
2014-Sep-21 08:32S 34°43' W 057°51'0 0.0
2014-Sep-21 07:32S 34°43' W 057°51'0 0.0
2014-Sep-21 06:32S 34°43' W 057°51'0 0.0
2014-Sep-21 05:32S 34°43' W 057°51'0 0.0
2014-Sep-21 04:32S 34°43' W 057°52'0 0.0
2014-Sep-21 03:32S 34°43' W 057°52'  

Dump ship's entire track history